Latest Weather Observations for Christmas Creek

IDW60801

Issued at 10:53 pm WST Tuesday 19 March 2019 (issued every 10 minutes, with the page automatically refreshed every 10 minutes)

About weather observations | Map of weather stations | Latest weather observations for WA | Other Formats
Station Details ID: 505049 Name: CHRISTMAS CREEK Lat: -22.36 Lon: 119.65 Height: 437.21 m
Data from the previous 72 hours. | See also: Recent months for locations in Western Australia
Date/Time
WST
Temp
°C
App
Temp
°C
Dew
Point
°C
Rel
Hum
%
Delta-T
°C
Wind Press
QNH
hPa
Press
MSL
hPa
Rain since
9am
mm
Dir  Spd
km/h
Gust
km/h
Spd
kts
Gust
kts
19/10:30pm 26.9 29.8 21.0 70 4.0 SW 7 13 4 7 1011.8 1008.6 0.6
19/10:00pm 27.5 29.8 20.6 66 4.6 W 9 19 5 10 1011.8 1008.6 0.6
19/09:30pm 27.8 29.9 20.1 63 5.1 W 9 15 5 8 1011.6 1008.4 0.6
19/09:00pm 27.5 28.1 20.3 65 4.8 W 17 28 9 15 1011.6 1008.4 0.6
19/08:30pm 27.9 27.7 19.4 60 5.6 W 19 30 10 16 1011.7 1008.5 0.6
19/08:00pm 30.5 30.9 17.2 44 8.6 W 11 20 6 11 1011.3 1008.1 0.6
19/07:30pm 31.2 30.2 17.9 45 8.7 WNW 20 28 11 15 1010.9 1007.7 0.6
19/07:00pm 33.8 33.9 16.6 35 11.1 WNW 11 22 6 12 1010.1 1006.9 0.6
19/06:30pm 34.8 35.2 15.2 31 12.4 NNE 7 11 4 6 1008.9 1005.7 0.6
19/06:00pm 35.5 35.5 15.3 30 12.9 NE 9 15 5 8 1008.5 1005.3 0.6
19/05:30pm 35.8 35.3 15.0 29 13.2 E 11 19 6 10 1008.2 1005.0 0.6
19/05:00pm 36.1 35.0 15.2 28 13.3 ENE 15 22 8 12 1007.9 1004.7 0.6
19/04:30pm 35.8 34.4 15.5 29 13.0 ENE 17 26 9 14 1008.1 1004.9 0.6
19/04:00pm 35.9 35.1 16.1 30 12.8 E 15 30 8 16 1008.1 1004.9 0.6
19/03:30pm 34.7 33.9 16.1 33 11.9 SSE 15 19 8 10 1008.2 1005.0 0.6
19/03:00pm 33.1 30.7 16.5 37 10.7 S 24 37 13 20 1008.7 1005.5 0.6
19/02:53pm 33.3 31.9 16.6 36 10.8 SSW 19 37 10 20 1008.8 1005.6 0.6
19/02:30pm 32.1 33.2 17.9 42 9.3 SSW 9 17 5 9 1008.9 1005.7 0.4
19/02:00pm 35.0 32.2 15.3 30 12.5 ENE 24 37 13 20 1008.8 1005.6 0.0
19/01:30pm 36.6 36.0 14.6 27 13.9 NE 11 19 6 10 1009.1 1005.9 0.0
19/01:00pm 36.9 36.6 15.4 28 13.8 ESE 11 19 6 10 1009.6 1006.4 0.0
19/12:30pm 37.0 36.7 15.5 28 13.8 N 11 20 6 11 1010.2 1007.0 0.0
19/12:00pm 36.6 37.2 15.7 29 13.4 ESE 7 19 4 10 1010.6 1007.5 0.0
19/11:30am 35.6 34.9 15.3 29 12.9 NNE 13 22 7 12 1011.1 1007.9 0.0
19/11:00am 35.8 36.7 16.5 31 12.5 E 7 19 4 10 1011.6 1008.4 0.0
19/10:30am 34.2 34.1 17.0 36 11.2 ESE 13 20 7 11 1012.0 1008.8 0.0
19/10:00am 32.9 33.6 17.9 41 9.8 SE 11 19 6 10 1012.1 1008.9 0.0
19/09:30am 32.0 32.7 17.9 43 9.2 ESE 11 26 6 14 1012.5 1009.3 0.0
19/09:00am 31.3 31.6 17.9 44 8.7 ESE 13 20 7 11 1012.7 1009.6 0.0
19/08:30am 31.0 31.6 17.7 45 8.6 E 11 13 6 7 1012.5 1009.3 0.0
19/08:00am 29.8 30.3 18.3 50 7.5 ESE 13 19 7 10 1012.5 1009.3 0.0
19/07:30am 28.5 30.2 18.0 53 6.8 SE 6 11 3 6 1012.2 1009.0 0.0
19/07:00am 28.0 30.3 17.8 54 6.6 SSW 2 4 1 2 1012.0 1008.8 0.0
19/06:30am 26.6 28.4 18.2 60 5.4 NW 6 7 3 4 1011.8 1008.6 0.0
19/06:00am 25.5 27.8 17.7 62 5.0 NNE 2 4 1 2 1011.6 1008.4 0.0
19/05:30am 25.9 27.6 18.1 62 5.0 ESE 6 13 3 7 1011.3 1008.1 0.0
19/05:00am 26.2 28.7 18.1 61 5.2 NNW 2 2 1 1 1011.1 1007.9 0.0
19/04:30am 26.7 29.0 17.8 58 5.7 NNE 2 4 1 2 1010.9 1007.7 0.0
19/04:00am 27.0 29.4 18.0 58 5.8 E 2 4 1 2 1010.5 1007.4 0.0
19/03:30am 26.7 28.8 18.0 59 5.6 SE 4 6 2 3 1010.6 1007.5 0.0
19/03:00am 27.9 29.6 18.6 57 6.1 NE 7 7 4 4 1010.6 1007.5 0.0
19/02:30am 28.5 30.6 18.0 53 6.8 NNE 4 6 2 3 1010.6 1007.5 0.0
19/02:00am 28.8 31.0 18.3 53 6.8 NNW 4 6 2 3 1010.7 1007.6 0.0
19/01:30am 29.2 29.8 17.7 50 7.4 N 11 13 6 7 1010.7 1007.6 0.0
19/01:00am 29.1 30.3 18.2 51 7.1 N 9 9 5 5 1010.9 1007.7 0.0
19/12:30am 29.2 30.6 18.6 52 6.9 N 9 11 5 6 1011.0 1007.8 0.0
19/12:00am 29.0 29.9 18.4 52 6.9 N 11 13 6 7 1011.3 1008.1 0.0
 
Date/Time
WST
Temp
°C
App
Temp
°C
Dew
Point
°C
Rel
Hum
%
Delta-T
°C
Wind Press
QNH
hPa
Press
MSL
hPa
Rain since
9am
mm
Dir  Spd
km/h
Gust
km/h
Spd
kts
Gust
kts
18/11:30pm 29.2 29.8 17.7 50 7.4 N 11 13 6 7 1011.5 1008.3 0.0
18/11:00pm 30.0 30.7 17.1 46 8.3 N 9 13 5 7 1011.6 1008.4 0.0
18/10:30pm 30.3 31.0 17.0 44 8.5 N 9 11 5 6 1011.8 1008.6 0.0
18/10:00pm 31.1 32.0 16.7 42 9.2 NE 7 9 4 5 1011.9 1008.7 0.0
18/09:30pm 31.2 31.9 17.1 42 9.1 NE 9 11 5 6 1012.0 1008.8 0.0
18/09:00pm 30.9 31.9 16.9 43 9.0 NE 7 9 4 5 1011.8 1008.6 0.0
18/08:30pm 31.1 32.5 16.3 41 9.4 NE 4 6 2 3 1011.5 1008.3 0.0
18/08:00pm 31.4 32.1 16.2 40 9.7 ENE 7 11 4 6 1011.2 1008.0 0.0
18/07:30pm 31.6 32.5 16.0 39 9.9 ENE 6 9 3 5 1010.7 1007.6 0.0
18/07:00pm 32.5 33.3 15.9 36 10.6 ENE 6 11 3 6 1010.2 1007.0 0.0
18/06:30pm 33.0 33.3 15.9 35 10.9 ENE 9 11 5 6 1009.9 1006.7 0.0
18/06:00pm 33.8 33.4 16.2 35 11.3 ENE 13 17 7 9 1009.5 1006.3 0.0
18/05:30pm 33.7 33.1 15.7 34 11.5 ENE 13 19 7 10 1009.4 1006.2 0.0
18/05:00pm 33.3 32.1 16.2 36 11.0 NE 17 20 9 11 1009.1 1005.9 0.0
18/04:30pm 33.5 32.2 16.8 36 10.8 ENE 19 22 10 12 1009.1 1005.9 0.0
18/04:00pm 34.1 32.9 16.0 34 11.6 E 17 26 9 14 1009.1 1005.9 0.0
18/03:30pm 34.7 34.8 15.6 32 12.2 SE 9 15 5 8 1009.1 1005.9 0.0
18/03:00pm 36.1 35.2 15.8 30 13.1 ESE 15 24 8 13 1009.3 1006.1 0.0
18/02:30pm 35.0 35.6 15.8 31 12.3 SW 7 17 4 9 1009.6 1006.4 0.0
18/02:00pm 35.1 35.5 16.4 32 12.1 N 9 19 5 10 1010.0 1006.8 0.0
18/01:30pm 36.1 37.3 17.3 33 12.3 SW 7 20 4 11 1010.5 1007.4 0.0
18/01:00pm 33.6 34.4 17.3 37 10.6 SW 9 17 5 9 1011.0 1007.8 0.0
18/12:30pm 34.1 35.5 17.3 36 10.9 NW 6 13 3 7 1011.4 1008.2 0.0
18/12:00pm 32.0 33.3 17.5 42 9.4 WSW 7 13 4 7 1011.9 1008.7 0.0
18/11:30am 31.9 33.6 18.1 43 9.0 ENE 6 13 3 7 1012.5 1009.3 0.0
18/11:00am 30.1 32.0 18.5 49 7.6 WNW 6 11 3 6 1013.3 1010.1 0.0
18/10:30am 29.4 30.7 18.5 52 7.1 ENE 9 17 5 9 1013.8 1010.6 0.0
18/10:00am 29.1 31.0 18.5 52 6.9 ESE 6 17 3 9 1014.1 1010.9 0.0
18/09:30am 28.4 30.1 18.5 55 6.5 ENE 7 17 4 9 1014.3 1011.1 0.0
18/09:00am 27.6 29.5 18.6 58 5.9 ENE 6 11 3 6 1014.6 1011.5 1.4
18/08:30am 26.5 27.1 18.6 62 5.1 E 13 22 7 12 1014.7 1011.6 1.4
18/08:00am 25.7 26.2 18.4 64 4.7 E 13 20 7 11 1014.3 1011.1 1.4
18/07:30am 25.1 27.1 18.8 68 4.1 E 6 11 3 6 1014.1 1010.9 1.4
18/07:00am 23.9 26.3 18.8 73 3.3 E 4 9 2 5 1013.5 1010.3 1.4
18/06:30am 23.5 25.6 19.0 76 2.9 E 6 9 3 5 1013.0 1009.9 1.4
18/06:00am 23.3 25.1 18.8 76 2.9 E 7 11 4 6 1012.8 1009.7 1.4
18/05:30am 23.1 25.3 19.3 79 2.5 E 6 7 3 4 1012.5 1009.3 1.4
18/05:00am 23.0 25.6 19.2 79 2.5 SSE 4 6 2 3 1012.6 1009.5 1.4
18/04:30am 23.0 25.5 19.0 78 2.6 E 4 6 2 3 1012.7 1009.6 1.4
18/04:00am 23.0 25.0 19.2 79 2.5 ESE 7 9 4 5 1012.9 1009.8 1.4
18/03:30am 22.8 24.4 19.2 80 2.3 SE 9 15 5 8 1013.3 1010.1 1.4
18/03:00am 22.7 24.4 19.3 81 2.2 SSE 9 13 5 7 1013.5 1010.3 1.4
18/02:30am 22.5 24.7 19.5 83 1.9 S 7 11 4 6 1013.7 1010.5 1.4
18/02:00am 22.5 24.3 19.5 83 1.9 SSW 9 15 5 8 1014.1 1010.9 1.4
18/01:30am 22.5 24.9 19.7 84 1.8 SW 6 7 3 4 1014.2 1011.0 1.4
18/01:00am 22.7 24.9 19.5 82 2.1 SSE 7 11 4 6 1014.1 1010.9 1.4
18/12:30am 22.7 24.5 19.5 82 2.1 SSE 9 15 5 8 1014.5 1011.3 1.4
18/12:00am 23.1 24.8 19.3 79 2.5 SSE 9 13 5 7 1015.1 1012.0 1.4
 
Date/Time
WST
Temp
°C
App
Temp
°C
Dew
Point
°C
Rel
Hum
%
Delta-T
°C
Wind Press
QNH
hPa
Press
MSL
hPa
Rain since
9am
mm
Dir  Spd
km/h
Gust
km/h
Spd
kts
Gust
kts
17/11:30pm 23.5 25.0 19.0 76 2.9 SE 9 15 5 8 1015.3 1012.2 1.4
17/11:00pm 23.6 23.8 19.3 77 2.8 E 17 24 9 13 1015.5 1012.4 1.4
17/10:30pm 23.8 25.1 20.1 80 2.4 ESE 13 20 7 11 1015.8 1012.6 1.4
17/10:00pm 23.9 23.9 20.2 80 2.4 ESE 20 28 11 15 1016.0 1012.8 1.4
17/09:30pm 24.0 24.1 20.3 80 2.4 E 20 30 11 16 1015.7 1012.5 1.4
17/09:00pm 24.1 24.1 20.2 79 2.6 E 20 30 11 16 1015.1 1012.0 1.4
17/08:30pm 25.4 26.8 19.5 70 3.9 E 11 17 6 9 1015.0 1011.9 1.4
17/08:00pm 25.4 25.7 19.5 70 3.9 E 17 26 9 14 1014.2 1011.0 1.4
17/07:30pm 25.8 25.5 19.2 67 4.3 ESE 19 32 10 17 1013.6 1010.4 1.4
17/07:00pm 25.7 25.8 20.0 71 3.8 SE 19 24 10 13 1012.5 1009.3 1.4
17/06:30pm 25.5 26.5 21.0 76 3.0 SE 17 24 9 13 1011.7 1008.5 1.4
17/06:00pm 24.7 27.7 21.2 81 2.3 S 7 9 4 5 1011.3 1008.1 1.4
17/05:30pm 24.7 27.2 21.0 80 2.5 SW 9 15 5 8 1012.0 1008.8 1.2
17/05:00pm 24.1 25.1 21.0 83 2.1 SW 17 26 9 14 1011.4 1008.2 1.2
17/04:30pm 26.5 26.6 20.3 68 4.1 NW 20 26 11 14 1010.5 1007.4 0.8
17/04:00pm 27.3 27.2 19.6 62 5.1 NNW 19 24 10 13 1010.4 1007.2 0.4
17/03:30pm 27.9 28.8 18.3 56 6.2 WSW 11 26 6 14 1009.6 1006.4 0.4
17/03:00pm 25.8 23.7 20.6 73 3.5 W 32 63 17 34 1008.9 1005.7 0.4
17/02:56pm 25.2 22.5 20.5 75 3.1 W 35 63 19 34 1009.3 1006.1 0.4
17/02:51pm 30.2 29.5 19.6 53 7.1 W 22 50 12 27 1009.3 1006.1 0.2
17/02:47pm 30.9 30.9 18.9 48 7.9 NW 17 41 9 22 1009.0 1005.8 0.2
17/02:30pm 36.3 36.4 16.5 31 12.8 ENE 11 33 6 18 1008.7 1005.5 0.0
17/02:00pm 36.1 36.5 14.7 28 13.6 ESE 6 13 3 7 1009.1 1005.9 0.0
17/01:30pm 35.9 35.9 15.1 29 13.2 ENE 9 19 5 10 1009.7 1006.5 0.0
17/01:00pm 36.6 36.8 15.7 29 13.4 E 9 24 5 13 1010.5 1007.4 0.0
17/12:30pm 36.2 36.6 15.3 28 13.3 NE 7 24 4 13 1011.1 1007.9 0.0
17/12:00pm 35.1 35.5 15.4 30 12.6 NE 7 20 4 11 1011.6 1008.4 0.0
17/11:30am 34.8 34.6 15.7 32 12.2 SE 11 22 6 12 1012.0 1008.8 0.0
17/11:00am 33.9 34.0 15.4 33 11.7 E 9 17 5 9 1012.5 1009.3 0.0
17/10:30am 32.7 32.3 15.2 34 11.0 SE 11 17 6 9 1012.8 1009.7 0.0
17/10:00am 32.2 31.8 16.1 38 10.3 E 13 22 7 12 1013.1 1010.0 0.0
17/09:30am 31.6 30.4 16.0 39 9.9 SE 17 22 9 12 1013.6 1010.4 0.0
17/09:00am 31.3 31.2 16.9 42 9.3 E 13 19 7 10 1013.6 1010.4 1.0
17/08:30am 30.2 30.2 17.3 46 8.3 E 13 19 7 10 1013.7 1010.5 1.0
17/08:00am 29.4 30.9 17.6 49 7.6 ENE 6 15 3 8 1013.5 1010.3 1.0
17/07:30am 26.8 28.5 18.1 59 5.6 NNE 6 7 3 4 1013.1 1010.0 1.0
17/07:00am 26.2 28.1 17.6 59 5.5 E 4 6 2 3 1012.7 1009.6 1.0
17/06:30am 25.7 28.2 18.1 63 4.9 NE 2 6 1 3 1012.3 1009.1 0.6
17/06:00am 25.8 27.3 18.0 62 5.0 NE 7 9 4 5 1012.1 1008.9 0.6
17/05:30am 26.0 27.2 18.2 62 5.0 NNE 9 11 5 6 1012.0 1008.8 0.6
17/05:00am 25.9 27.8 18.6 64 4.7 NE 6 7 3 4 1011.8 1008.6 0.6
17/04:30am 25.6 28.1 19.0 67 4.3 NE 4 6 2 3 1011.8 1008.6 0.6
17/04:00am 25.5 28.3 19.6 70 3.9 N 4 6 2 3 1011.9 1008.7 0.6
17/03:30am 26.0 27.8 18.4 63 4.9 NNE 6 7 3 4 1011.9 1008.7 0.6
17/03:00am 25.7 27.9 18.4 64 4.7 E 4 7 2 4 1012.0 1008.8 0.6
17/02:30am 25.6 27.4 18.8 66 4.4 ENE 7 9 4 5 1011.9 1008.7 0.6
17/02:00am 26.3 29.1 18.9 63 4.8 NE 2 4 1 2 1011.7 1008.5 0.6
17/01:30am 25.8 28.7 19.0 66 4.4 ESE 2 2 1 1 1011.8 1008.6 0.6
17/01:00am 26.5 29.2 18.6 62 5.1 N 2 6 1 3 1011.9 1008.7 0.6
17/12:30am 26.7 28.9 18.3 60 5.4 WNW 4 6 2 3 1012.3 1009.1 0.6
17/12:00am 26.3 29.0 20.2 69 4.0 NE 6 9 3 5 1012.7 1009.6 0.6
 
Date/Time
WST
Temp
°C
App
Temp
°C
Dew
Point
°C
Rel
Hum
%
Delta-T
°C
Wind Press
QNH
hPa
Press
MSL
hPa
Rain since
9am
mm
Dir  Spd
km/h
Gust
km/h
Spd
kts
Gust
kts
16/11:30pm 25.9 28.7 20.9 74 3.3 NNW 7 7 4 4 1012.8 1009.7 0.6
16/11:00pm 25.8 28.8 20.1 71 3.8 NNW 4 7 2 4 1012.9 1009.8 0.6

Other formats

Comma delimited format used in spreadsheet applications
http://www.bom.gov.au/fwo/IDW60801/IDW60801.99737.axf

JavaScript Object Notation format (JSON) in row-major order
http://www.bom.gov.au/fwo/IDW60801/IDW60801.99737.json

Data quality

Most of these data are generated automatically and are frequently updated. Quality checks on data are not normally performed. It is possible for incorrect values to appear. Refer to information at About Latest Weather Observations and please check the disclaimer before using these data.